Tobias Bolanos International Airport
MRPV : now visible

Airfield :











YOU CAN JOIN US ON...

 
LOGIN :

Register | Disclaimer

   EN    FR    IT 

 









Legend :    VFR   Marginal VFR   IFR   Intensive IFR   Very Intensive IFR
Visi :
Ceiling :
>= 8 km
>= 3000ft
5 to 8 km
1000 to 3000 ft
1500m to 5 km
500 to 1000 ft
800 to 1500m
200 to 500 ft
< 800m
< 200 ft
Symbols :   Thunderstorms  Fog  Heavy snow  Heavy precipitations  Wind > 20 kt







- Airport Elevation : 3287 ft
- IATA code : SYQ


MRPV - Tobias Bolanos International

CURRENT METAR :
  • 172000Z 26004KT 4000 -RA BR VCTS FEW010 BKN035 23/20 A3002 RESHRA NOSIG

EXPIRED METARs :
  • 171935Z 25007KT 070V270 4000 SCT020TCU BKN035 24/20 A3001 NOSIG
  • 171910Z COR 10007KT 9999 4000N SHRA VCTS SCT020TCU SCT040 26/18 A3002 NOSIG
  • 171900Z 18005KT 270V200 9999 BKN040 26/19 A3002 NOSIG
  • 171800Z 07006KT 9999 SCT040 SCT060 27/18 A3007 NOSIG

TAF MRPV
Valid from the 17 at 18:00 until the 18 at 18:00 UTC


171700Z 1718/1818 30009KT 9999 SCT040 TX28/1818Z TN20/1810Z
TEMPO 1718/1720 08005KT
TEMPO 1721/1803 5000 RA BR BKN010
BECMG 1803/1805 10010KT
No reported NOTAMs for that airfield.



MET'MAP, your aeronautical weather chart ! - Copyright ORBIFLY December 2007 - Disclaimer

ORBIFLY MET'MAP TEAM :

Programming & Development : Alexandra Zaïnal
Concept & Development : Baudouin d'Aumeries
Co-Development & Prog : Marc-Olivier Méhu
Technical & hardware support : Manuel Goepfert

Contact : metmap@orbifly.com




SOURCES & CREDITS :

   NOAA       Earth
Advisory